Time;durP1;ratioP1;P1;durP2;ratioP2;P2;SDS_P1;SDS_P2;PMS_P1;PMS_P2;Temp;Humidity;BMP_temperature;BMP_pressure;BME280_temperature;BME280_humidity;BME280_pressure;Samples;Min_cycle;Max_cycle;Signal;HPM_P1;HPM_P2
2024/01/15 00:00:08;;;;;;;7.60;3.45;;;;;;;2.24;100.00;100259.72;5073456;28;20040;-68
2024/01/15 00:02:58;;;;;;;8.65;4.05;;;;;;;2.22;100.00;100256.44;5061050;28;20044;-71
2024/01/15 00:05:46;;;;;;;7.57;3.20;;;;;;;2.22;100.00;100244.88;5039991;28;20053;-70
2024/01/15 00:08:34;;;;;;;5.90;2.90;;;;;;;2.19;100.00;100242.63;5054500;28;20513;-69
2024/01/15 00:11:22;;;;;;;6.60;2.78;;;;;;;2.20;100.00;100241.59;5069916;28;20055;-69
2024/01/15 00:14:11;;;;;;;5.32;2.80;;;;;;;2.21;100.00;100237.84;5082136;28;20048;-69
2024/01/15 00:16:59;;;;;;;5.18;2.50;;;;;;;2.21;100.00;100233.28;5047729;28;20102;-69
2024/01/15 00:19:47;;;;;;;6.03;2.60;;;;;;;2.19;100.00;100240.78;5071527;28;20086;-71
2024/01/15 00:22:35;;;;;;;5.50;2.20;;;;;;;2.19;100.00;100229.19;5059004;28;20044;-69
2024/01/15 00:25:23;;;;;;;4.38;2.00;;;;;;;2.20;100.00;100225.47;5070031;28;20178;-69
2024/01/15 00:28:11;;;;;;;4.68;1.95;;;;;;;2.20;100.00;100226.28;5074540;28;20123;-70
2024/01/15 00:30:59;;;;;;;3.13;1.77;;;;;;;2.19;100.00;100226.50;5059889;28;20410;-69
2024/01/15 00:33:47;;;;;;;3.90;1.77;;;;;;;2.18;100.00;100232.94;5058514;28;20485;-69
2024/01/15 00:36:36;;;;;;;3.70;1.73;;;;;;;2.15;100.00;100218.09;5074173;28;20041;-69
2024/01/15 00:39:25;;;;;;;6.32;2.13;;;;;;;2.16;100.00;100210.84;5056434;28;20048;-68
2024/01/15 00:42:14;;;;;;;3.33;1.95;;;;;;;2.15;100.00;100210.03;5030816;28;20068;-71
2024/01/15 00:45:02;;;;;;;5.80;2.00;;;;;;;2.13;100.00;100207.56;5053661;28;20056;-69
2024/01/15 00:47:50;;;;;;;3.58;1.90;;;;;;;2.12;100.00;100202.44;5088272;28;20040;-73
2024/01/15 00:50:38;;;;;;;5.75;2.10;;;;;;;2.11;100.00;100195.41;5052716;28;20460;-68
2024/01/15 00:53:26;;;;;;;3.47;1.85;;;;;;;2.11;100.00;100201.59;5029564;28;20413;-68
2024/01/15 00:56:14;;;;;;;5.25;2.20;;;;;;;2.07;100.00;100200.41;5070015;28;20052;-69
2024/01/15 00:59:02;;;;;;;5.72;1.98;;;;;;;2.05;100.00;100197.13;5056359;28;20045;-68
2024/01/15 01:01:50;;;;;;;8.32;2.35;;;;;;;2.01;100.00;100190.56;5056409;28;20102;-68
2024/01/15 01:04:38;;;;;;;4.90;1.95;;;;;;;2.03;100.00;100195.72;5072117;28;20468;-68
2024/01/15 01:07:26;;;;;;;5.18;1.95;;;;;;;2.01;100.00;100195.94;5090749;28;20381;-68
2024/01/15 01:10:14;;;;;;;3.70;1.80;;;;;;;2.01;100.00;100184.38;5096446;28;20043;-67
2024/01/15 01:13:02;;;;;;;6.22;2.30;;;;;;;1.99;100.00;100179.22;5079030;28;20070;-67
2024/01/15 01:15:50;;;;;;;3.65;2.00;;;;;;;1.97;100.00;100181.31;5061711;28;20049;-68
2024/01/15 01:18:38;;;;;;;3.90;1.83;;;;;;;1.98;100.00;100184.84;5039054;28;20139;-68
2024/01/15 01:21:27;;;;;;;4.00;1.85;;;;;;;1.97;100.00;100188.56;5053670;28;20134;-69
2024/01/15 01:24:15;;;;;;;6.88;2.65;;;;;;;1.94;100.00;100181.78;5057926;28;20048;-70
2024/01/15 01:27:03;;;;;;;5.95;2.05;;;;;;;1.93;100.00;100182.84;5079288;28;20416;-69
2024/01/15 01:29:51;;;;;;;5.35;2.60;;;;;;;1.95;100.00;100179.91;5078065;28;20128;-69
2024/01/15 01:32:39;;;;;;;8.02;2.15;;;;;;;1.95;100.00;100186.13;5072935;28;20051;-70
2024/01/15 01:35:28;;;;;;;5.93;2.08;;;;;;;1.94;100.00;100184.47;5058612;28;20044;-69
2024/01/15 01:38:15;;;;;;;7.78;2.45;;;;;;;1.94;100.00;100189.03;5088961;28;20118;-69
2024/01/15 01:41:04;;;;;;;5.30;2.42;;;;;;;1.95;100.00;100185.28;5062796;28;20416;-67
2024/01/15 01:43:51;;;;;;;7.93;2.35;;;;;;;1.93;100.00;100196.25;5089257;28;20056;-68
2024/01/15 01:46:40;;;;;;;5.75;2.33;;;;;;;1.93;100.00;100198.94;5093684;28;20056;-68
2024/01/15 01:49:28;;;;;;;6.18;2.13;;;;;;;1.92;100.00;100202.66;5077670;28;20036;-68
2024/01/15 01:52:17;;;;;;;5.05;2.08;;;;;;;1.88;100.00;100199.63;5075264;28;20059;-69
2024/01/15 01:55:05;;;;;;;8.05;2.65;;;;;;;1.91;100.00;100201.03;5071285;28;20059;-68
2024/01/15 01:57:54;;;;;;;8.98;2.70;;;;;;;1.90;100.00;100184.09;5091297;28;20572;-69
2024/01/15 02:00:43;;;;;;;6.57;2.50;;;;;;;1.92;100.00;100191.91;5091780;28;20044;-69
2024/01/15 02:03:31;;;;;;;7.25;2.80;;;;;;;1.90;100.00;100189.47;5077671;28;20055;-67
2024/01/15 02:06:19;;;;;;;6.57;2.35;;;;;;;1.90;100.00;100194.00;5082547;28;20037;-68
2024/01/15 02:09:09;;;;;;;7.10;2.47;;;;;;;1.89;100.00;100189.69;5063845;28;20209;-69
2024/01/15 02:11:57;;;;;;;6.78;2.20;;;;;;;1.87;100.00;100181.03;5077266;28;20044;-69
2024/01/15 02:14:45;;;;;;;7.07;2.47;;;;;;;1.87;100.00;100183.72;5076490;28;20527;-68
2024/01/15 02:17:33;;;;;;;5.07;2.30;;;;;;;1.84;100.00;100178.81;5076828;28;20048;-67
2024/01/15 02:20:21;;;;;;;6.07;2.10;;;;;;;1.82;100.00;100181.72;5075644;28;20048;-68
2024/01/15 02:23:13;;;;;;;4.35;1.85;;;;;;;1.81;100.00;100181.97;5090349;28;20516;-68
2024/01/15 02:26:02;;;;;;;5.95;2.58;;;;;;;1.79;100.00;100182.16;5075555;28;20055;-68
2024/01/15 02:28:51;;;;;;;8.43;2.63;;;;;;;1.78;100.00;100177.00;5044784;28;20412;-68
2024/01/15 02:31:39;;;;;;;5.85;1.92;;;;;;;1.81;100.00;100173.91;5066555;28;20051;-68
2024/01/15 02:34:32;;;;;;;5.63;2.33;;;;;;;1.84;100.00;100173.44;5079911;28;20048;-67
2024/01/15 02:37:20;;;;;;;7.20;2.55;;;;;;;1.81;100.00;100169.34;5092920;28;20051;-68
2024/01/15 02:40:09;;;;;;;6.05;2.10;;;;;;;1.82;100.00;100170.16;5081730;28;20063;-67
2024/01/15 02:42:57;;;;;;;8.00;2.38;;;;;;;1.81;100.00;100173.91;5071633;28;20146;-67
2024/01/15 02:45:46;;;;;;;7.20;2.47;;;;;;;1.80;100.00;100173.06;5081465;28;20060;-66
2024/01/15 02:48:36;;;;;;;6.00;2.25;;;;;;;1.80;100.00;100177.63;5088192;28;20040;-68
2024/01/15 02:51:24;;;;;;;7.03;2.30;;;;;;;1.78;100.00;100180.53;5096093;28;20063;-68
2024/01/15 02:54:12;;;;;;;8.10;2.50;;;;;;;1.79;100.00;100178.69;5096763;28;20055;-68
2024/01/15 02:57:00;;;;;;;9.23;2.75;;;;;;;1.79;100.00;100182.16;5098956;28;20044;-71
2024/01/15 02:59:48;;;;;;;8.13;2.30;;;;;;;1.78;100.00;100175.19;5075594;28;20059;-69
2024/01/15 03:02:43;;;;;;;8.23;2.58;;;;;;;1.79;100.00;100173.31;5106500;28;20072;-65
2024/01/15 03:05:34;;;;;;;10.05;2.47;;;;;;;1.81;100.00;100181.97;5078295;28;20054;-65
2024/01/15 03:08:22;;;;;;;5.63;2.10;;;;;;;1.78;100.00;100182.38;5075433;28;20040;-68
2024/01/15 03:11:11;;;;;;;7.00;2.70;;;;;;;1.78;100.00;100177.00;5091731;28;20048;-69
2024/01/15 03:13:59;;;;;;;9.13;2.78;;;;;;;1.78;100.00;100182.38;5094657;28;20492;-68
2024/01/15 03:16:47;;;;;;;7.95;2.60;;;;;;;1.78;100.00;100174.34;5113188;28;20064;-62
2024/01/15 03:19:35;;;;;;;9.10;2.92;;;;;;;1.79;100.00;100176.00;5113832;28;20048;-59
2024/01/15 03:22:24;;;;;;;4.88;2.05;;;;;;;1.80;100.00;100178.44;5107744;28;20054;-67
2024/01/15 03:25:12;;;;;;;6.55;2.22;;;;;;;1.83;100.00;100177.19;5095769;28;20058;-69
2024/01/15 03:27:59;;;;;;;8.27;2.65;;;;;;;1.77;100.00;100172.72;5068401;28;20084;-67
2024/01/15 03:30:47;;;;;;;7.22;2.25;;;;;;;1.73;100.00;100172.31;5081837;28;20048;-69
2024/01/15 03:33:35;;;;;;;7.07;2.42;;;;;;;1.75;100.00;100169.41;5079384;28;20069;-69
2024/01/15 03:36:24;;;;;;;5.82;1.88;;;;;;;1.74;100.00;100165.09;5092925;28;20073;-68
2024/01/15 03:39:12;;;;;;;8.30;2.53;;;;;;;1.74;100.00;100160.56;5093126;28;20504;-68
2024/01/15 03:42:00;;;;;;;4.43;1.92;;;;;;;1.73;100.00;100156.22;5091944;28;20518;-69
2024/01/15 03:44:48;;;;;;;8.02;2.25;;;;;;;1.72;100.00;100161.81;5078710;28;20194;-68
2024/01/15 03:47:36;;;;;;;10.60;2.47;;;;;;;1.69;100.00;100157.72;5079804;28;20122;-68
2024/01/15 03:50:24;;;;;;;7.53;2.30;;;;;;;1.69;100.00;100155.84;5077655;28;20054;-68
2024/01/15 03:53:12;;;;;;;8.98;2.30;;;;;;;1.70;100.00;100157.47;5093253;28;20066;-67
2024/01/15 03:56:00;;;;;;;8.63;2.70;;;;;;;1.68;100.00;100154.22;5093588;28;20119;-68
2024/01/15 03:58:48;;;;;;;7.75;2.25;;;;;;;1.67;100.00;100163.31;5093980;28;20040;-69
2024/01/15 04:01:36;;;;;;;6.97;2.50;;;;;;;1.67;100.00;100152.56;5044518;28;20113;-68
2024/01/15 04:04:24;;;;;;;6.10;2.38;;;;;;;1.68;100.00;100148.84;5074475;28;20485;-68
2024/01/15 04:07:12;;;;;;;6.85;2.40;;;;;;;1.69;100.00;100149.66;5093886;28;20047;-68
2024/01/15 04:10:01;;;;;;;5.05;1.83;;;;;;;1.68;100.00;100143.50;5091957;28;20514;-68
2024/01/15 04:12:49;;;;;;;7.88;2.35;;;;;;;1.67;100.00;100141.81;5045711;28;20059;-68
2024/01/15 04:15:37;;;;;;;6.85;2.67;;;;;;;1.69;100.00;100136.25;5062802;28;20047;-68
2024/01/15 04:18:25;;;;;;;6.25;2.05;;;;;;;1.69;100.00;100131.69;5094431;28;20043;-68
2024/01/15 04:21:13;;;;;;;8.80;2.50;;;;;;;1.69;100.00;100139.75;5090058;28;20562;-68
2024/01/15 04:24:01;;;;;;;8.32;2.80;;;;;;;1.70;100.00;100129.81;5079712;28;20048;-68
2024/01/15 04:26:49;;;;;;;9.10;2.53;;;;;;;1.73;100.00;100126.66;5078214;28;20401;-71
2024/01/15 04:29:40;;;;;;;7.55;2.83;;;;;;;1.72;100.00;100127.72;5070545;28;20048;-69
2024/01/15 04:32:29;;;;;;;7.00;2.42;;;;;;;1.74;100.00;100128.31;5063800;28;20093;-69
2024/01/15 04:35:17;;;;;;;8.70;2.47;;;;;;;1.74;100.00;100124.81;5093334;28;20044;-68
2024/01/15 04:38:05;;;;;;;8.45;2.65;;;;;;;1.77;100.00;100119.00;5079457;28;20044;-69
2024/01/15 04:40:53;;;;;;;10.27;2.97;;;;;;;1.75;100.00;100121.91;5063416;28;20040;-69
2024/01/15 04:43:45;;;;;;;8.38;2.70;;;;;;;1.73;100.00;100117.78;5077401;28;20048;-68
2024/01/15 04:46:33;;;;;;;8.73;2.83;;;;;;;1.74;100.00;100108.72;5078060;28;20055;-69
2024/01/15 04:49:21;;;;;;;6.70;2.58;;;;;;;1.73;100.00;100101.69;5078453;28;20189;-70
2024/01/15 04:52:10;;;;;;;7.13;2.72;;;;;;;1.70;100.00;100109.16;5078013;28;20040;-68
2024/01/15 04:54:58;;;;;;;5.93;2.33;;;;;;;1.69;100.00;100112.88;5063883;28;20127;-69
2024/01/15 04:57:47;;;;;;;9.65;2.30;;;;;;;1.67;100.00;100109.59;5093668;28;20182;-69
2024/01/15 05:00:35;;;;;;;5.78;2.70;;;;;;;1.68;100.00;100108.56;5076679;28;20044;-68
2024/01/15 05:03:23;;;;;;;10.80;2.80;;;;;;;1.69;100.00;100118.25;5077596;28;20044;-69
2024/01/15 05:06:11;;;;;;;12.30;2.97;;;;;;;1.70;100.00;100127.94;5091217;28;20051;-68
2024/01/15 05:08:59;;;;;;;7.65;2.42;;;;;;;1.67;100.00;100119.53;5093360;28;20069;-68
2024/01/15 05:11:47;;;;;;;9.40;2.60;;;;;;;1.64;100.00;100120.81;5064467;28;20068;-67
2024/01/15 05:14:35;;;;;;;5.45;2.15;;;;;;;1.60;100.00;100124.16;5077536;28;20055;-68
2024/01/15 05:17:23;;;;;;;5.18;1.98;;;;;;;1.57;100.00;100120.06;5057271;28;20067;-69
2024/01/15 05:20:11;;;;;;;5.57;1.95;;;;;;;1.56;100.00;100120.28;5078853;28;20044;-68
2024/01/15 05:22:59;;;;;;;6.70;1.77;;;;;;;1.52;100.00;100111.88;5087802;28;20044;-68
2024/01/15 05:25:47;;;;;;;5.07;2.05;;;;;;;1.51;100.00;100104.84;5078442;28;20461;-70
2024/01/15 05:28:35;;;;;;;3.08;1.65;;;;;;;1.50;100.00;100095.19;5058251;28;20093;-68
2024/01/15 05:31:23;;;;;;;8.65;2.38;;;;;;;1.53;100.00;100102.78;5084202;28;20458;-69
2024/01/15 05:34:12;;;;;;;3.35;1.48;;;;;;;1.51;100.00;100091.44;5090472;28;20055;-68
2024/01/15 05:37:00;;;;;;;5.07;1.80;;;;;;;1.54;100.00;100098.22;5092365;28;20048;-69
2024/01/15 05:39:48;;;;;;;5.60;2.03;;;;;;;1.55;100.00;100106.06;5091871;28;20050;-68
2024/01/15 05:42:36;;;;;;;6.63;2.13;;;;;;;1.57;100.00;100103.16;5078437;28;20484;-68
2024/01/15 05:45:26;;;;;;;5.72;2.20;;;;;;;1.53;100.00;100097.41;5088590;28;20067;-67
2024/01/15 05:48:14;;;;;;;4.00;2.00;;;;;;;1.52;100.00;100094.97;5063401;28;20158;-68
2024/01/15 05:51:02;;;;;;;5.30;2.00;;;;;;;1.53;100.00;100102.78;5092081;28;20043;-67
2024/01/15 05:53:50;;;;;;;5.40;1.73;;;;;;;1.53;100.00;100094.72;5076283;28;20044;-67
2024/01/15 05:56:39;;;;;;;3.67;1.60;;;;;;;1.56;100.00;100101.50;5063752;28;20075;-67
2024/01/15 05:59:31;;;;;;;7.47;2.22;;;;;;;1.57;100.00;100098.59;5091153;28;20054;-67
2024/01/15 06:02:19;;;;;;;5.72;2.13;;;;;;;1.60;100.00;100092.75;5091341;28;20044;-67
2024/01/15 06:05:07;;;;;;;7.07;1.77;;;;;;;1.65;100.00;100092.91;5088735;28;20052;-66
2024/01/15 06:07:55;;;;;;;3.65;1.70;;;;;;;1.67;100.00;100088.13;5076985;28;20561;-67
2024/01/15 06:10:43;;;;;;;3.17;1.63;;;;;;;1.67;100.00;100088.13;5079894;28;20509;-67
2024/01/15 06:13:31;;;;;;;7.40;2.30;;;;;;;1.67;100.00;100077.38;5084556;28;20044;-67
2024/01/15 06:16:22;;;;;;;4.53;1.70;;;;;;;1.67;100.00;100076.56;5062047;28;20040;-66
2024/01/15 06:19:10;;;;;;;2.75;1.60;;;;;;;1.67;100.00;100080.06;5076054;28;20044;-67
2024/01/15 06:21:58;;;;;;;2.92;1.52;;;;;;;1.67;100.00;100066.66;5078251;28;20118;-67
2024/01/15 06:24:47;;;;;;;3.05;1.52;;;;;;;1.63;100.00;100067.31;5089458;28;20059;-71
2024/01/15 06:27:35;;;;;;;4.70;1.73;;;;;;;1.60;100.00;100070.47;5071932;28;20056;-66
2024/01/15 06:30:23;;;;;;;4.00;1.50;;;;;;;1.58;100.00;100067.19;5091572;28;20422;-67
2024/01/15 06:33:11;;;;;;;4.05;1.80;;;;;;;1.59;100.00;100063.44;5089907;28;20048;-68
2024/01/15 06:35:59;;;;;;;2.92;1.50;;;;;;;1.55;100.00;100075.72;5090191;28;20032;-68
2024/01/15 06:38:47;;;;;;;3.15;1.50;;;;;;;1.55;100.00;100071.16;5072461;28;20127;-69
2024/01/15 06:41:41;;;;;;;4.50;1.90;;;;;;;1.55;100.00;100067.66;5088828;28;20098;-67
2024/01/15 06:44:29;;;;;;;4.35;1.95;;;;;;;1.54;100.00;100066.84;5085553;28;20059;-68
2024/01/15 06:47:17;;;;;;;2.38;1.58;;;;;;;1.55;100.00;100073.84;5091404;28;20075;-67
2024/01/15 06:50:06;;;;;;;2.80;1.65;;;;;;;1.54;100.00;100071.38;5075812;28;20420;-67
2024/01/15 06:52:55;;;;;;;3.55;2.17;;;;;;;1.54;100.00;100072.22;5078711;28;20127;-68
2024/01/15 06:55:43;;;;;;;4.28;1.90;;;;;;;1.53;100.00;100070.56;4384888;28;10000307;-68
2024/01/15 06:58:34;;;;;;;3.90;2.13;;;;;;;1.47;100.00;100079.53;5092336;28;20052;-68
2024/01/15 07:01:22;;;;;;;2.67;1.67;;;;;;;1.46;100.00;100075.19;5079445;28;20592;-67
2024/01/15 07:04:11;;;;;;;2.25;1.85;;;;;;;1.45;100.00;100079.75;5085731;28;22406;-68
2024/01/15 07:06:59;;;;;;;3.65;1.80;;;;;;;1.50;100.00;100071.03;5060351;28;20048;-68
2024/01/15 07:09:47;;;;;;;4.05;1.90;;;;;;;1.52;100.00;100068.94;5087259;28;20055;-69
2024/01/15 07:12:35;;;;;;;4.03;2.45;;;;;;;1.52;100.00;100068.94;5074609;28;20052;-70
2024/01/15 07:15:23;;;;;;;4.82;2.40;;;;;;;1.49;100.00;100066.69;5084440;28;20044;-71
2024/01/15 07:18:11;;;;;;;4.63;2.63;;;;;;;1.43;100.00;100062.22;5080924;28;20039;-69
2024/01/15 07:21:01;;;;;;;4.15;2.50;;;;;;;1.42;100.00;100058.72;5087000;28;20456;-70
2024/01/15 07:23:49;;;;;;;5.13;2.88;;;;;;;1.35;100.00;100066.06;5077554;28;20420;-67
2024/01/15 07:26:37;;;;;;;8.25;2.90;;;;;;;1.33;100.00;100053.91;5078270;28;20119;-67
2024/01/15 07:29:25;;;;;;;3.53;2.40;;;;;;;1.32;100.00;100062.97;5089261;28;20051;-70
2024/01/15 07:32:13;;;;;;;4.55;2.58;;;;;;;1.27;100.00;100067.19;5086332;28;20074;-71
2024/01/15 07:35:01;;;;;;;4.88;2.95;;;;;;;1.25;100.00;100079.16;5080921;28;20048;-70
2024/01/15 07:37:49;;;;;;;3.10;2.38;;;;;;;1.26;100.00;100078.94;5079517;28;20133;-69
2024/01/15 07:40:37;;;;;;;4.10;2.90;;;;;;;1.22;100.00;100082.31;5086624;28;20059;-64
2024/01/15 07:43:26;;;;;;;3.70;2.60;;;;;;;1.14;100.00;100086.13;5080723;28;20047;-74
2024/01/15 07:46:14;;;;;;;3.40;2.30;;;;;;;1.09;100.00;100075.25;5078285;28;20064;-68
2024/01/15 07:49:03;;;;;;;4.68;2.45;;;;;;;1.02;100.00;100082.53;5090312;28;20352;-69
2024/01/15 07:51:51;;;;;;;3.55;2.10;;;;;;;1.02;100.00;100095.94;5091523;28;20059;-72
2024/01/15 07:54:39;;;;;;;2.60;2.17;;;;;;;1.03;100.00;100093.06;5085914;28;20052;-71
2024/01/15 07:57:28;;;;;;;3.67;2.50;;;;;;;1.09;100.00;100085.16;5077582;28;20182;-72
2024/01/15 08:00:16;;;;;;;2.53;2.30;;;;;;;1.14;100.00;100087.97;5076778;28;20548;-71
2024/01/15 08:03:05;;;;;;;3.80;2.10;;;;;;;1.20;100.00;100081.69;5066049;28;20513;-66
2024/01/15 08:05:54;;;;;;;2.15;2.00;;;;;;;1.21;100.00;100083.34;5094407;28;20120;-66
2024/01/15 08:08:42;;;;;;;2.22;2.03;;;;;;;1.21;100.00;100089.53;5079084;28;20059;-67
2024/01/15 08:11:30;;;;;;;2.70;2.30;;;;;;;1.24;100.00;100099.00;5076829;28;20044;-68
2024/01/15 08:14:19;;;;;;;2.40;2.20;;;;;;;1.25;100.00;100104.16;5094484;28;20096;-67
2024/01/15 08:17:07;;;;;;;3.85;2.50;;;;;;;1.27;100.00;100109.28;5080492;28;20055;-67
2024/01/15 08:19:56;;;;;;;4.15;2.20;;;;;;;1.21;100.00;100111.00;5079734;28;20055;-68
2024/01/15 08:22:44;;;;;;;2.92;2.33;;;;;;;1.13;100.00;100114.00;5062399;28;20044;-68
2024/01/15 08:25:32;;;;;;;3.92;2.30;;;;;;;1.11;100.00;100128.66;5087396;28;20140;-69
2024/01/15 08:28:20;;;;;;;5.63;2.38;;;;;;;1.08;100.00;100113.81;5058752;28;20041;-67
2024/01/15 08:31:09;;;;;;;4.95;2.28;;;;;;;1.08;100.00;100116.50;5084589;28;20393;-68
2024/01/15 08:33:57;;;;;;;2.78;1.90;;;;;;;1.08;100.00;100099.59;5070732;28;20044;-68
2024/01/15 08:36:45;;;;;;;4.22;1.90;;;;;;;1.09;100.00;100110.13;5090964;28;20044;-71
2024/01/15 08:39:33;;;;;;;5.45;2.13;;;;;;;1.13;100.00;100116.69;5091349;28;20506;-68
2024/01/15 08:42:21;;;;;;;5.28;2.38;;;;;;;1.18;100.00;100121.34;5078729;28;20177;-67
2024/01/15 08:45:10;;;;;;;4.35;2.00;;;;;;;1.15;100.00;100116.44;5078243;28;20098;-71
2024/01/15 08:47:58;;;;;;;2.20;2.00;;;;;;;1.12;100.00;100124.94;5092586;28;20079;-70
2024/01/15 08:50:46;;;;;;;4.80;2.28;;;;;;;1.14;100.00;100125.53;5076951;28;20625;-68
2024/01/15 08:53:35;;;;;;;2.92;2.20;;;;;;;1.16;100.00;100131.50;5094099;28;20101;-69
2024/01/15 08:56:23;;;;;;;2.92;2.03;;;;;;;1.08;100.00;100121.88;5093137;28;20094;-68
2024/01/15 08:59:11;;;;;;;3.15;2.00;;;;;;;1.08;100.00;100135.28;5093952;28;20076;-68
2024/01/15 09:02:00;;;;;;;2.45;2.05;;;;;;;1.13;100.00;100135.47;5093842;28;20044;-67
2024/01/15 09:04:48;;;;;;;4.07;1.80;;;;;;;1.17;100.00;100130.44;5080820;28;20048;-70
2024/01/15 09:07:36;;;;;;;2.40;2.05;;;;;;;1.16;100.00;100129.63;5081009;28;20047;-68
2024/01/15 09:10:24;;;;;;;4.68;2.25;;;;;;;1.13;100.00;100122.03;5066368;28;20133;-67
2024/01/15 09:13:12;;;;;;;3.55;1.70;;;;;;;1.12;100.00;100123.06;5078862;28;20055;-68
2024/01/15 09:16:00;;;;;;;1.67;1.45;;;;;;;1.15;100.00;100122.63;5078556;28;20531;-67
2024/01/15 09:18:49;;;;;;;3.53;1.60;;;;;;;1.18;100.00;100127.56;5079016;28;20040;-69
2024/01/15 09:21:39;;;;;;;1.70;1.60;;;;;;;1.21;100.00;100127.09;5092954;28;20044;-68
2024/01/15 09:24:27;;;;;;;3.15;1.90;;;;;;;1.28;100.00;100122.47;5065010;28;20047;-68
2024/01/15 09:27:16;;;;;;;1.92;1.80;;;;;;;1.34;100.00;100122.63;5077932;28;20047;-68
2024/01/15 09:30:07;;;;;;;1.83;1.73;;;;;;;1.37;100.00;100125.69;5080217;28;20408;-68
2024/01/15 09:32:55;;;;;;;2.38;2.00;;;;;;;1.42;100.00;100116.94;5092484;28;20059;-68
2024/01/15 09:35:43;;;;;;;2.33;1.90;;;;;;;1.44;100.00;100112.16;5093660;28;20056;-68
2024/01/15 09:38:31;;;;;;;2.78;2.25;;;;;;;1.45;100.00;100121.88;5079686;28;20044;-68
2024/01/15 09:41:19;;;;;;;3.33;2.20;;;;;;;1.44;100.00;100112.16;5051949;28;20181;-67
2024/01/15 09:44:07;;;;;;;4.40;2.33;;;;;;;1.45;100.00;100116.50;5072226;28;20449;-68
2024/01/15 09:46:56;;;;;;;3.38;2.42;;;;;;;1.46;100.00;100120.81;5093284;28;20067;-68
2024/01/15 09:49:44;;;;;;;4.32;2.30;;;;;;;1.51;100.00;100125.53;5078455;28;20052;-68
2024/01/15 09:52:32;;;;;;;3.15;2.33;;;;;;;1.51;100.00;100120.97;5078722;28;20133;-68
2024/01/15 09:55:20;;;;;;;3.38;2.30;;;;;;;1.56;100.00;100129.16;5076262;28;20108;-68
2024/01/15 09:58:08;;;;;;;3.65;2.10;;;;;;;1.61;100.00;100129.31;5078316;28;20044;-68
2024/01/15 10:00:57;;;;;;;6.75;2.70;;;;;;;1.69;100.00;100122.81;5091699;28;20036;-68
2024/01/15 10:03:46;;;;;;;3.67;2.08;;;;;;;1.78;100.00;100118.78;5051185;28;20523;-68
2024/01/15 10:06:34;;;;;;;3.70;1.90;;;;;;;1.78;100.00;100126.00;5063420;28;20058;-68
2024/01/15 10:09:22;;;;;;;4.90;2.10;;;;;;;1.73;100.00;100117.78;5093862;28;20050;-68
2024/01/15 10:12:11;;;;;;;4.30;1.98;;;;;;;1.72;100.00;100121.53;5095192;28;20099;-68
2024/01/15 10:14:59;;;;;;;4.82;2.05;;;;;;;1.72;100.00;100121.53;5077882;28;20123;-68
2024/01/15 10:17:47;;;;;;;7.32;2.60;;;;;;;1.69;100.00;100123.63;5093054;28;20075;-67
2024/01/15 10:20:35;;;;;;;6.57;2.20;;;;;;;1.69;100.00;100128.19;5091389;28;20052;-68
2024/01/15 10:23:26;;;;;;;7.72;2.35;;;;;;;1.63;100.00;100127.22;5091617;28;20047;-67
2024/01/15 10:26:14;;;;;;;7.63;2.80;;;;;;;1.69;100.00;100139.75;5078229;28;20119;-69
2024/01/15 10:29:06;;;;;;;8.55;2.72;;;;;;;1.62;100.00;100136.31;5078633;28;20439;-67
2024/01/15 10:31:54;;;;;;;10.27;2.92;;;;;;;1.62;100.00;100128.25;5078021;28;20504;-67
2024/01/15 10:34:45;;;;;;;11.43;2.30;;;;;;;1.60;100.00;100124.97;5049046;28;20048;-68
2024/01/15 10:37:34;;;;;;;9.48;2.50;;;;;;;1.64;100.00;100130.75;5077358;28;20037;-68
2024/01/15 10:40:22;;;;;;;9.80;2.80;;;;;;;1.61;100.00;100117.75;5093592;28;20077;-67
2024/01/15 10:43:11;;;;;;;7.63;2.38;;;;;;;1.55;100.00;100115.97;5077519;28;20055;-68
2024/01/15 10:45:59;;;;;;;9.00;2.70;;;;;;;1.55;100.00;100118.66;5093380;28;20506;-67
2024/01/15 10:48:47;;;;;;;5.47;2.20;;;;;;;1.54;100.00;100119.69;5064444;28;20051;-68
2024/01/15 10:51:35;;;;;;;9.60;3.08;;;;;;;1.54;100.00;100120.53;5066803;28;20127;-67
2024/01/15 10:54:24;;;;;;;8.60;2.58;;;;;;;1.54;100.00;100123.22;5081783;28;20044;-70
2024/01/15 10:57:13;;;;;;;7.45;2.55;;;;;;;1.49;100.00;100128.41;5096056;28;20185;-67
2024/01/15 11:00:05;;;;;;;7.43;2.20;;;;;;;1.47;100.00;100130.53;5066664;28;20127;-68
2024/01/15 11:02:56;;;;;;;6.45;2.35;;;;;;;1.48;100.00;100122.22;5057494;28;20063;-67
2024/01/15 11:05:45;;;;;;;6.15;2.30;;;;;;;1.48;100.00;100118.75;5095790;28;20448;-68
2024/01/15 11:08:33;;;;;;;6.28;2.20;;;;;;;1.51;100.00;100110.22;5069971;28;20457;-68
2024/01/15 11:11:25;;;;;;;5.82;2.35;;;;;;;1.51;100.00;100115.59;5088854;28;20052;-68
2024/01/15 11:14:39;;;;;;;4.25;1.80;;;;;;;1.55;100.00;100114.09;5069746;28;20044;-69
2024/01/15 11:17:27;;;;;;;4.28;2.20;;;;;;;1.56;100.00;100113.03;5081322;28;20130;-69
2024/01/15 11:20:15;;;;;;;5.43;2.33;;;;;;;1.58;100.00;100110.97;5065593;28;20040;-69
2024/01/15 11:23:03;;;;;;;5.55;2.28;;;;;;;1.63;100.00;100113.78;5094681;28;20573;-69
2024/01/15 11:25:51;;;;;;;4.47;1.90;;;;;;;1.70;100.00;100111.84;5080646;28;20059;-68
2024/01/15 11:28:48;;;;;;;4.65;2.45;;;;;;;1.81;100.00;100109.44;5066049;28;20070;-69
2024/01/15 11:31:39;;;;;;;4.60;2.05;;;;;;;1.79;100.00;100117.72;5054968;28;20036;-68
2024/01/15 11:35:01;;;;;;;5.22;2.10;;;;;;;1.82;100.00;100132.56;5096357;28;20054;-68
2024/01/15 11:37:52;;;;;;;6.00;2.20;;;;;;;1.84;100.00;100117.84;5068437;28;20044;-66
2024/01/15 11:40:42;;;;;;;7.43;2.83;;;;;;;1.85;100.00;100116.81;5093814;28;20086;-69
2024/01/15 11:43:32;;;;;;;6.82;2.42;;;;;;;1.87;100.00;100119.25;4377350;28;10000124;-69
2024/01/15 11:46:20;;;;;;;5.65;2.20;;;;;;;1.88;100.00;100115.53;5059420;28;20064;-69
2024/01/15 11:49:12;;;;;;;8.60;2.72;;;;;;;1.86;100.00;100123.00;5065466;28;20056;-68
2024/01/15 11:52:02;;;;;;;6.80;2.47;;;;;;;1.86;100.00;100123.81;5065072;28;20161;-69
2024/01/15 11:54:56;;;;;;;6.93;2.38;;;;;;;1.84;100.00;100141.22;5074620;28;20103;-70
2024/01/15 11:57:51;;;;;;;5.88;2.22;;;;;;;1.76;100.00;100141.53;5073358;28;20055;-70
2024/01/15 12:00:44;;;;;;;5.53;2.20;;;;;;;1.70;100.00;100140.56;5088430;28;20045;-70
2024/01/15 12:03:34;;;;;;;8.10;2.38;;;;;;;1.63;100.00;100143.31;5097163;28;20044;-70
2024/01/15 12:06:23;;;;;;;7.45;2.63;;;;;;;1.54;100.00;100146.53;5089174;28;20051;-69
2024/01/15 12:09:11;;;;;;;8.50;2.40;;;;;;;1.48;100.00;100150.94;5077193;28;20105;-70
2024/01/15 12:12:07;;;;;;;6.32;2.00;;;;;;;1.46;100.00;100143.13;5076340;28;20516;-70
2024/01/15 12:14:55;;;;;;;;;;;;;;;1.46;100.00;100148.47;5063770;28;20495;-70
2024/01/15 12:17:43;;;;;;;8.05;2.30;;;;;;;1.52;100.00;100137.91;5091466;28;20459;-68
2024/01/15 12:20:32;;;;;;;8.98;2.55;;;;;;;1.56;100.00;100161.38;5065647;28;20123;-68
2024/01/15 12:23:20;;;;;;;6.00;1.85;;;;;;;1.57;100.00;100159.53;5078794;28;20044;-69
2024/01/15 12:26:08;;;;;;;6.90;2.22;;;;;;;1.54;100.00;100166.19;5064660;28;20055;-68
2024/01/15 12:28:57;;;;;;;3.83;1.85;;;;;;;1.51;100.00;100173.84;5065959;28;20197;-68
2024/01/15 12:31:48;;;;;;;4.63;1.92;;;;;;;1.51;100.00;100179.22;5065768;28;20577;-67
2024/01/15 12:34:37;;;;;;;5.70;2.17;;;;;;;1.48;100.00;100183.97;5079368;28;20132;-68
2024/01/15 12:37:26;;;;;;;3.33;1.90;;;;;;;1.36;100.00;100187.63;5065304;28;20052;-68
2024/01/15 12:40:18;;;;;;;5.18;2.20;;;;;;;1.34;100.00;100189.72;5035699;28;20036;-68
2024/01/15 12:43:07;;;;;;;4.65;2.22;;;;;;;1.33;100.00;100193.47;5050864;28;20056;-68
2024/01/15 12:45:55;;;;;;;4.85;2.10;;;;;;;1.31;100.00;100195.53;5065395;28;20381;-68
2024/01/15 12:48:43;;;;;;;3.75;2.20;;;;;;;1.30;100.00;100177.78;5078433;28;20051;-68
2024/01/15 12:51:34;;;;;;;2.72;1.80;;;;;;;1.37;100.00;100183.91;5093086;28;20051;-68
2024/01/15 12:54:24;;;;;;;2.85;1.80;;;;;;;1.41;100.00;100174.38;5092722;28;20141;-68
2024/01/15 12:57:12;;;;;;;4.15;1.77;;;;;;;1.45;100.00;100189.00;5059244;28;20048;-67
2024/01/15 13:00:00;;;;;;;3.45;1.90;;;;;;;1.49;100.00;100182.94;5074223;28;20361;-68
2024/01/15 13:02:49;;;;;;;4.60;1.98;;;;;;;1.54;100.00;100179.59;5074019;28;20109;-69